sensor_id;sensor_type;location;lat;lon;timestamp;P1;durP1;ratioP1;P2;durP2;ratioP2
52742;SDS011;55583;53.012;6.556;2022-08-25T00:01:44;20.75;;;7.25;;
52742;SDS011;55583;53.012;6.556;2022-08-25T00:04:12;10.73;;;6.93;;
52742;SDS011;55583;53.012;6.556;2022-08-25T00:06:38;11.15;;;7.20;;
52742;SDS011;55583;53.012;6.556;2022-08-25T00:09:06;10.07;;;7.53;;
52742;SDS011;55583;53.012;6.556;2022-08-25T00:11:33;14.60;;;8.13;;
52742;SDS011;55583;53.012;6.556;2022-08-25T00:14:01;9.40;;;7.22;;
52742;SDS011;55583;53.012;6.556;2022-08-25T00:16:29;10.63;;;7.57;;
52742;SDS011;55583;53.012;6.556;2022-08-25T00:18:56;12.10;;;7.38;;
52742;SDS011;55583;53.012;6.556;2022-08-25T00:21:25;10.77;;;8.30;;
52742;SDS011;55583;53.012;6.556;2022-08-25T00:23:51;8.88;;;7.80;;
52742;SDS011;55583;53.012;6.556;2022-08-25T00:26:19;9.98;;;7.65;;
52742;SDS011;55583;53.012;6.556;2022-08-25T00:28:45;13.35;;;7.95;;
52742;SDS011;55583;53.012;6.556;2022-08-25T00:31:12;9.52;;;7.63;;
52742;SDS011;55583;53.012;6.556;2022-08-25T00:33:40;9.10;;;7.05;;
52742;SDS011;55583;53.012;6.556;2022-08-25T00:36:08;15.38;;;7.50;;
52742;SDS011;55583;53.012;6.556;2022-08-25T00:38:36;14.27;;;8.23;;
52742;SDS011;55583;53.012;6.556;2022-08-25T00:41:03;10.48;;;7.75;;
52742;SDS011;55583;53.012;6.556;2022-08-25T00:43:35;9.98;;;7.47;;
52742;SDS011;55583;53.012;6.556;2022-08-25T00:46:13;8.18;;;6.57;;
52742;SDS011;55583;53.012;6.556;2022-08-25T00:48:43;11.90;;;8.10;;
52742;SDS011;55583;53.012;6.556;2022-08-25T00:51:13;9.40;;;7.45;;
52742;SDS011;55583;53.012;6.556;2022-08-25T00:53:43;12.60;;;7.40;;
52742;SDS011;55583;53.012;6.556;2022-08-25T00:56:10;9.85;;;6.95;;
52742;SDS011;55583;53.012;6.556;2022-08-25T00:58:38;15.57;;;7.60;;
52742;SDS011;55583;53.012;6.556;2022-08-25T01:01:06;11.00;;;7.05;;
52742;SDS011;55583;53.012;6.556;2022-08-25T01:03:31;10.48;;;6.85;;
52742;SDS011;55583;53.012;6.556;2022-08-25T01:05:58;10.88;;;7.28;;
52742;SDS011;55583;53.012;6.556;2022-08-25T01:08:25;12.95;;;7.07;;
52742;SDS011;55583;53.012;6.556;2022-08-25T01:10:53;10.88;;;7.18;;
52742;SDS011;55583;53.012;6.556;2022-08-25T01:16:04;9.07;;;6.35;;
52742;SDS011;55583;53.012;6.556;2022-08-25T01:18:40;9.75;;;6.95;;
52742;SDS011;55583;53.012;6.556;2022-08-25T01:21:17;8.35;;;6.78;;
52742;SDS011;55583;53.012;6.556;2022-08-25T01:23:45;7.93;;;6.10;;
52742;SDS011;55583;53.012;6.556;2022-08-25T01:26:13;8.88;;;5.95;;
52742;SDS011;55583;53.012;6.556;2022-08-25T01:28:40;6.65;;;5.28;;
52742;SDS011;55583;53.012;6.556;2022-08-25T01:31:27;9.98;;;5.95;;
52742;SDS011;55583;53.012;6.556;2022-08-25T01:33:53;10.10;;;6.00;;
52742;SDS011;55583;53.012;6.556;2022-08-25T01:36:20;12.85;;;6.50;;
52742;SDS011;55583;53.012;6.556;2022-08-25T01:38:47;8.38;;;5.90;;
52742;SDS011;55583;53.012;6.556;2022-08-25T01:41:15;9.70;;;5.22;;
52742;SDS011;55583;53.012;6.556;2022-08-25T01:43:49;11.85;;;6.45;;
52742;SDS011;55583;53.012;6.556;2022-08-25T01:46:15;7.60;;;4.97;;
52742;SDS011;55583;53.012;6.556;2022-08-25T01:48:40;12.48;;;4.95;;
52742;SDS011;55583;53.012;6.556;2022-08-25T01:51:06;8.05;;;5.45;;
52742;SDS011;55583;53.012;6.556;2022-08-25T01:53:32;6.60;;;4.88;;
52742;SDS011;55583;53.012;6.556;2022-08-25T01:55:57;8.25;;;5.03;;
52742;SDS011;55583;53.012;6.556;2022-08-25T01:58:30;6.13;;;4.63;;
52742;SDS011;55583;53.012;6.556;2022-08-25T02:00:59;8.07;;;5.28;;
52742;SDS011;55583;53.012;6.556;2022-08-25T02:03:26;8.18;;;4.80;;
52742;SDS011;55583;53.012;6.556;2022-08-25T02:05:53;6.85;;;4.65;;
52742;SDS011;55583;53.012;6.556;2022-08-25T02:08:21;9.27;;;4.95;;
52742;SDS011;55583;53.012;6.556;2022-08-25T02:10:47;11.20;;;4.90;;
52742;SDS011;55583;53.012;6.556;2022-08-25T02:13:14;8.95;;;4.45;;
52742;SDS011;55583;53.012;6.556;2022-08-25T02:15:41;6.22;;;4.05;;
52742;SDS011;55583;53.012;6.556;2022-08-25T02:18:08;9.30;;;4.57;;
52742;SDS011;55583;53.012;6.556;2022-08-25T02:20:35;9.63;;;4.88;;
52742;SDS011;55583;53.012;6.556;2022-08-25T02:23:01;5.20;;;4.15;;
52742;SDS011;55583;53.012;6.556;2022-08-25T02:25:27;7.65;;;4.43;;
52742;SDS011;55583;53.012;6.556;2022-08-25T02:27:52;8.07;;;4.80;;
52742;SDS011;55583;53.012;6.556;2022-08-25T02:30:18;9.18;;;4.53;;
52742;SDS011;55583;53.012;6.556;2022-08-25T02:32:44;9.82;;;4.68;;
52742;SDS011;55583;53.012;6.556;2022-08-25T02:35:10;8.57;;;3.95;;
52742;SDS011;55583;53.012;6.556;2022-08-25T02:37:36;9.27;;;3.90;;
52742;SDS011;55583;53.012;6.556;2022-08-25T02:40:02;6.47;;;4.97;;
52742;SDS011;55583;53.012;6.556;2022-08-25T02:42:29;9.35;;;4.47;;
52742;SDS011;55583;53.012;6.556;2022-08-25T02:44:54;5.03;;;4.03;;
52742;SDS011;55583;53.012;6.556;2022-08-25T02:47:20;4.85;;;3.72;;
52742;SDS011;55583;53.012;6.556;2022-08-25T02:49:46;7.05;;;4.38;;
52742;SDS011;55583;53.012;6.556;2022-08-25T02:52:12;6.80;;;4.63;;
52742;SDS011;55583;53.012;6.556;2022-08-25T02:54:39;8.18;;;4.68;;
52742;SDS011;55583;53.012;6.556;2022-08-25T02:57:05;5.80;;;3.97;;
52742;SDS011;55583;53.012;6.556;2022-08-25T02:59:30;11.60;;;4.45;;
52742;SDS011;55583;53.012;6.556;2022-08-25T03:01:56;5.35;;;4.13;;
52742;SDS011;55583;53.012;6.556;2022-08-25T03:04:22;5.97;;;4.00;;
52742;SDS011;55583;53.012;6.556;2022-08-25T03:06:48;6.30;;;4.07;;
52742;SDS011;55583;53.012;6.556;2022-08-25T03:09:14;7.53;;;4.20;;
52742;SDS011;55583;53.012;6.556;2022-08-25T03:11:40;9.60;;;4.30;;
52742;SDS011;55583;53.012;6.556;2022-08-25T03:14:06;15.50;;;4.80;;
52742;SDS011;55583;53.012;6.556;2022-08-25T03:16:33;10.00;;;4.40;;
52742;SDS011;55583;53.012;6.556;2022-08-25T03:18:59;6.15;;;3.65;;
52742;SDS011;55583;53.012;6.556;2022-08-25T03:21:26;8.90;;;4.40;;
52742;SDS011;55583;53.012;6.556;2022-08-25T03:23:53;6.47;;;3.95;;
52742;SDS011;55583;53.012;6.556;2022-08-25T03:26:19;8.40;;;4.97;;
52742;SDS011;55583;53.012;6.556;2022-08-25T03:29:03;6.88;;;3.70;;
52742;SDS011;55583;53.012;6.556;2022-08-25T03:31:30;6.55;;;3.88;;
52742;SDS011;55583;53.012;6.556;2022-08-25T03:33:56;6.70;;;4.32;;
52742;SDS011;55583;53.012;6.556;2022-08-25T03:36:23;5.15;;;4.13;;
52742;SDS011;55583;53.012;6.556;2022-08-25T03:38:50;6.20;;;4.22;;
52742;SDS011;55583;53.012;6.556;2022-08-25T03:41:26;4.88;;;3.55;;
52742;SDS011;55583;53.012;6.556;2022-08-25T03:43:53;7.80;;;3.97;;
52742;SDS011;55583;53.012;6.556;2022-08-25T03:46:20;5.05;;;3.72;;
52742;SDS011;55583;53.012;6.556;2022-08-25T03:48:51;4.97;;;3.90;;
52742;SDS011;55583;53.012;6.556;2022-08-25T03:51:27;13.88;;;5.15;;
52742;SDS011;55583;53.012;6.556;2022-08-25T03:53:55;5.78;;;3.95;;
52742;SDS011;55583;53.012;6.556;2022-08-25T03:56:21;7.78;;;4.28;;
52742;SDS011;55583;53.012;6.556;2022-08-25T03:58:47;5.45;;;3.88;;
52742;SDS011;55583;53.012;6.556;2022-08-25T04:01:13;7.22;;;4.00;;
52742;SDS011;55583;53.012;6.556;2022-08-25T04:03:39;5.25;;;4.28;;
52742;SDS011;55583;53.012;6.556;2022-08-25T04:06:06;9.60;;;4.47;;
52742;SDS011;55583;53.012;6.556;2022-08-25T04:08:32;6.40;;;4.32;;
52742;SDS011;55583;53.012;6.556;2022-08-25T04:10:57;6.50;;;4.03;;
52742;SDS011;55583;53.012;6.556;2022-08-25T04:13:24;6.93;;;4.22;;
52742;SDS011;55583;53.012;6.556;2022-08-25T04:15:49;10.45;;;4.38;;
52742;SDS011;55583;53.012;6.556;2022-08-25T04:18:15;6.43;;;3.80;;
52742;SDS011;55583;53.012;6.556;2022-08-25T04:20:41;8.25;;;3.95;;
52742;SDS011;55583;53.012;6.556;2022-08-25T04:23:07;8.88;;;4.38;;
52742;SDS011;55583;53.012;6.556;2022-08-25T04:25:34;6.75;;;4.38;;
52742;SDS011;55583;53.012;6.556;2022-08-25T04:28:06;9.18;;;4.38;;
52742;SDS011;55583;53.012;6.556;2022-08-25T04:30:32;7.20;;;4.18;;
52742;SDS011;55583;53.012;6.556;2022-08-25T04:32:58;10.10;;;4.10;;
52742;SDS011;55583;53.012;6.556;2022-08-25T04:35:24;5.47;;;4.35;;
52742;SDS011;55583;53.012;6.556;2022-08-25T04:37:50;5.65;;;4.50;;
52742;SDS011;55583;53.012;6.556;2022-08-25T04:40:15;13.57;;;4.22;;
52742;SDS011;55583;53.012;6.556;2022-08-25T04:42:41;7.63;;;4.47;;
52742;SDS011;55583;53.012;6.556;2022-08-25T04:45:08;7.03;;;4.78;;
52742;SDS011;55583;53.012;6.556;2022-08-25T04:47:37;10.23;;;4.68;;
52742;SDS011;55583;53.012;6.556;2022-08-25T04:50:04;6.93;;;4.80;;
52742;SDS011;55583;53.012;6.556;2022-08-25T04:52:31;9.30;;;5.07;;
52742;SDS011;55583;53.012;6.556;2022-08-25T04:54:57;6.97;;;4.72;;
52742;SDS011;55583;53.012;6.556;2022-08-25T04:57:24;6.20;;;4.30;;
52742;SDS011;55583;53.012;6.556;2022-08-25T04:59:50;7.47;;;4.80;;
52742;SDS011;55583;53.012;6.556;2022-08-25T05:02:16;9.65;;;4.55;;
52742;SDS011;55583;53.012;6.556;2022-08-25T05:04:41;6.40;;;5.20;;
52742;SDS011;55583;53.012;6.556;2022-08-25T05:07:07;8.73;;;4.78;;
52742;SDS011;55583;53.012;6.556;2022-08-25T05:09:33;10.35;;;4.63;;
52742;SDS011;55583;53.012;6.556;2022-08-25T05:11:59;9.75;;;5.20;;
52742;SDS011;55583;53.012;6.556;2022-08-25T05:14:26;9.70;;;4.93;;
52742;SDS011;55583;53.012;6.556;2022-08-25T05:16:51;8.90;;;4.63;;
52742;SDS011;55583;53.012;6.556;2022-08-25T05:19:18;9.57;;;5.18;;
52742;SDS011;55583;53.012;6.556;2022-08-25T05:21:44;10.05;;;5.22;;
52742;SDS011;55583;53.012;6.556;2022-08-25T05:24:09;8.05;;;4.22;;
52742;SDS011;55583;53.012;6.556;2022-08-25T05:26:35;6.72;;;4.28;;
52742;SDS011;55583;53.012;6.556;2022-08-25T05:29:02;12.45;;;5.10;;
52742;SDS011;55583;53.012;6.556;2022-08-25T05:31:30;11.40;;;5.05;;
52742;SDS011;55583;53.012;6.556;2022-08-25T05:33:56;7.57;;;5.00;;
52742;SDS011;55583;53.012;6.556;2022-08-25T05:36:24;6.80;;;4.90;;
52742;SDS011;55583;53.012;6.556;2022-08-25T05:38:51;9.05;;;4.65;;
52742;SDS011;55583;53.012;6.556;2022-08-25T05:41:18;7.30;;;4.93;;
52742;SDS011;55583;53.012;6.556;2022-08-25T05:43:46;8.20;;;5.03;;
52742;SDS011;55583;53.012;6.556;2022-08-25T05:46:16;10.65;;;4.88;;
52742;SDS011;55583;53.012;6.556;2022-08-25T05:48:43;14.00;;;6.05;;
52742;SDS011;55583;53.012;6.556;2022-08-25T05:51:10;9.95;;;4.97;;
52742;SDS011;55583;53.012;6.556;2022-08-25T05:53:37;11.73;;;5.07;;
52742;SDS011;55583;53.012;6.556;2022-08-25T05:56:05;9.75;;;4.93;;
52742;SDS011;55583;53.012;6.556;2022-08-25T05:58:31;10.73;;;4.95;;
52742;SDS011;55583;53.012;6.556;2022-08-25T06:00:57;8.75;;;5.10;;
52742;SDS011;55583;53.012;6.556;2022-08-25T06:03:47;12.52;;;5.13;;
52742;SDS011;55583;53.012;6.556;2022-08-25T06:06:17;6.72;;;4.20;;
52742;SDS011;55583;53.012;6.556;2022-08-25T06:08:43;9.23;;;4.78;;
52742;SDS011;55583;53.012;6.556;2022-08-25T06:11:09;12.20;;;4.50;;
52742;SDS011;55583;53.012;6.556;2022-08-25T06:13:36;5.70;;;4.10;;
52742;SDS011;55583;53.012;6.556;2022-08-25T06:16:02;12.05;;;5.00;;
52742;SDS011;55583;53.012;6.556;2022-08-25T06:18:28;7.60;;;4.15;;
52742;SDS011;55583;53.012;6.556;2022-08-25T06:20:53;6.55;;;4.50;;
52742;SDS011;55583;53.012;6.556;2022-08-25T06:23:19;16.00;;;4.55;;
52742;SDS011;55583;53.012;6.556;2022-08-25T06:25:48;8.45;;;4.22;;
52742;SDS011;55583;53.012;6.556;2022-08-25T06:28:18;7.03;;;4.22;;
52742;SDS011;55583;53.012;6.556;2022-08-25T06:30:45;9.07;;;4.63;;
52742;SDS011;55583;53.012;6.556;2022-08-25T06:33:11;10.93;;;3.97;;
52742;SDS011;55583;53.012;6.556;2022-08-25T06:35:40;8.18;;;3.63;;
52742;SDS011;55583;53.012;6.556;2022-08-25T06:38:06;6.30;;;4.05;;
52742;SDS011;55583;53.012;6.556;2022-08-25T06:40:32;6.47;;;3.80;;
52742;SDS011;55583;53.012;6.556;2022-08-25T06:42:58;5.85;;;4.00;;
52742;SDS011;55583;53.012;6.556;2022-08-25T06:45:23;6.93;;;4.28;;
52742;SDS011;55583;53.012;6.556;2022-08-25T06:47:49;7.40;;;4.13;;
52742;SDS011;55583;53.012;6.556;2022-08-25T06:50:15;9.25;;;3.65;;
52742;SDS011;55583;53.012;6.556;2022-08-25T06:52:41;5.25;;;3.80;;
52742;SDS011;55583;53.012;6.556;2022-08-25T06:55:07;8.38;;;4.40;;
52742;SDS011;55583;53.012;6.556;2022-08-25T06:57:33;4.85;;;3.75;;
52742;SDS011;55583;53.012;6.556;2022-08-25T07:00:00;13.10;;;4.10;;
52742;SDS011;55583;53.012;6.556;2022-08-25T07:02:26;7.97;;;4.35;;
52742;SDS011;55583;53.012;6.556;2022-08-25T07:04:52;8.82;;;3.90;;
52742;SDS011;55583;53.012;6.556;2022-08-25T07:07:18;6.50;;;3.95;;
52742;SDS011;55583;53.012;6.556;2022-08-25T07:09:44;7.93;;;4.05;;
52742;SDS011;55583;53.012;6.556;2022-08-25T07:12:09;8.00;;;4.15;;
52742;SDS011;55583;53.012;6.556;2022-08-25T07:14:35;8.45;;;4.35;;
52742;SDS011;55583;53.012;6.556;2022-08-25T07:17:01;11.00;;;4.38;;
52742;SDS011;55583;53.012;6.556;2022-08-25T07:19:27;11.40;;;3.95;;
52742;SDS011;55583;53.012;6.556;2022-08-25T07:21:53;9.07;;;4.13;;
52742;SDS011;55583;53.012;6.556;2022-08-25T07:24:19;6.50;;;4.18;;
52742;SDS011;55583;53.012;6.556;2022-08-25T07:26:46;10.35;;;4.05;;
52742;SDS011;55583;53.012;6.556;2022-08-25T07:29:13;9.07;;;4.32;;
52742;SDS011;55583;53.012;6.556;2022-08-25T07:31:41;11.20;;;4.53;;
52742;SDS011;55583;53.012;6.556;2022-08-25T07:34:07;9.07;;;3.90;;
52742;SDS011;55583;53.012;6.556;2022-08-25T07:36:51;5.97;;;4.15;;
52742;SDS011;55583;53.012;6.556;2022-08-25T07:39:18;7.90;;;4.15;;
52742;SDS011;55583;53.012;6.556;2022-08-25T07:41:44;11.43;;;5.30;;
52742;SDS011;55583;53.012;6.556;2022-08-25T07:44:10;8.82;;;4.88;;
52742;SDS011;55583;53.012;6.556;2022-08-25T07:46:37;12.77;;;4.82;;
52742;SDS011;55583;53.012;6.556;2022-08-25T07:49:03;10.77;;;4.25;;
52742;SDS011;55583;53.012;6.556;2022-08-25T07:51:29;10.52;;;4.38;;
52742;SDS011;55583;53.012;6.556;2022-08-25T07:53:55;12.60;;;4.70;;
52742;SDS011;55583;53.012;6.556;2022-08-25T07:56:20;8.32;;;4.60;;
52742;SDS011;55583;53.012;6.556;2022-08-25T07:58:46;11.75;;;4.38;;
52742;SDS011;55583;53.012;6.556;2022-08-25T08:01:13;9.95;;;4.25;;
52742;SDS011;55583;53.012;6.556;2022-08-25T08:03:40;9.98;;;4.20;;
52742;SDS011;55583;53.012;6.556;2022-08-25T08:06:07;8.07;;;4.90;;
52742;SDS011;55583;53.012;6.556;2022-08-25T08:08:36;11.30;;;4.50;;
52742;SDS011;55583;53.012;6.556;2022-08-25T08:11:02;8.45;;;4.78;;
52742;SDS011;55583;53.012;6.556;2022-08-25T08:13:28;6.55;;;4.50;;
52742;SDS011;55583;53.012;6.556;2022-08-25T08:15:54;6.13;;;4.07;;
52742;SDS011;55583;53.012;6.556;2022-08-25T08:18:20;8.65;;;4.07;;
52742;SDS011;55583;53.012;6.556;2022-08-25T08:20:46;7.38;;;4.20;;
52742;SDS011;55583;53.012;6.556;2022-08-25T08:23:13;4.97;;;3.70;;
52742;SDS011;55583;53.012;6.556;2022-08-25T08:25:39;9.43;;;4.18;;
52742;SDS011;55583;53.012;6.556;2022-08-25T08:28:05;10.18;;;4.20;;
52742;SDS011;55583;53.012;6.556;2022-08-25T08:30:31;8.45;;;3.97;;
52742;SDS011;55583;53.012;6.556;2022-08-25T08:32:57;9.75;;;4.40;;
52742;SDS011;55583;53.012;6.556;2022-08-25T08:35:23;8.77;;;3.95;;
52742;SDS011;55583;53.012;6.556;2022-08-25T08:37:48;10.07;;;4.55;;
52742;SDS011;55583;53.012;6.556;2022-08-25T08:40:14;11.13;;;4.13;;
52742;SDS011;55583;53.012;6.556;2022-08-25T08:42:54;11.82;;;4.40;;
52742;SDS011;55583;53.012;6.556;2022-08-25T08:45:39;10.23;;;4.30;;
52742;SDS011;55583;53.012;6.556;2022-08-25T08:51:22;7.63;;;3.97;;
52742;SDS011;55583;53.012;6.556;2022-08-25T08:56:28;5.00;;;3.33;;
52742;SDS011;55583;53.012;6.556;2022-08-25T08:59:05;10.55;;;3.97;;
52742;SDS011;55583;53.012;6.556;2022-08-25T09:01:56;13.15;;;4.13;;
52742;SDS011;55583;53.012;6.556;2022-08-25T09:04:44;9.98;;;3.58;;
52742;SDS011;55583;53.012;6.556;2022-08-25T09:07:15;7.95;;;3.22;;
52742;SDS011;55583;53.012;6.556;2022-08-25T09:09:44;10.38;;;3.50;;
52742;SDS011;55583;53.012;6.556;2022-08-25T09:12:11;9.57;;;3.10;;
52742;SDS011;55583;53.012;6.556;2022-08-25T09:14:44;5.70;;;3.30;;
52742;SDS011;55583;53.012;6.556;2022-08-25T09:30:56;8.10;;;2.83;;
52742;SDS011;55583;53.012;6.556;2022-08-25T09:33:29;6.03;;;3.30;;
52742;SDS011;55583;53.012;6.556;2022-08-25T09:35:57;5.88;;;2.90;;
52742;SDS011;55583;53.012;6.556;2022-08-25T09:38:23;6.15;;;2.92;;
52742;SDS011;55583;53.012;6.556;2022-08-25T09:40:53;6.20;;;3.35;;
52742;SDS011;55583;53.012;6.556;2022-08-25T09:46:24;4.93;;;2.80;;
52742;SDS011;55583;53.012;6.556;2022-08-25T09:48:55;5.88;;;2.72;;
52742;SDS011;55583;53.012;6.556;2022-08-25T09:54:02;6.53;;;2.30;;
52742;SDS011;55583;53.012;6.556;2022-08-25T09:56:55;9.40;;;2.50;;
52742;SDS011;55583;53.012;6.556;2022-08-25T09:59:33;2.97;;;2.13;;
52742;SDS011;55583;53.012;6.556;2022-08-25T10:02:05;4.28;;;2.28;;
52742;SDS011;55583;53.012;6.556;2022-08-25T10:04:49;4.75;;;2.20;;
52742;SDS011;55583;53.012;6.556;2022-08-25T10:07:33;7.15;;;2.20;;
52742;SDS011;55583;53.012;6.556;2022-08-25T10:10:05;5.82;;;2.20;;
52742;SDS011;55583;53.012;6.556;2022-08-25T10:12:44;5.82;;;2.25;;
52742;SDS011;55583;53.012;6.556;2022-08-25T10:15:25;8.27;;;2.20;;
52742;SDS011;55583;53.012;6.556;2022-08-25T10:18:29;7.35;;;1.90;;
52742;SDS011;55583;53.012;6.556;2022-08-25T10:23:33;4.63;;;2.22;;
52742;SDS011;55583;53.012;6.556;2022-08-25T10:26:02;5.75;;;2.35;;
52742;SDS011;55583;53.012;6.556;2022-08-25T10:31:53;9.75;;;2.40;;
52742;SDS011;55583;53.012;6.556;2022-08-25T10:34:30;9.82;;;2.53;;
52742;SDS011;55583;53.012;6.556;2022-08-25T10:37:16;4.55;;;2.30;;
52742;SDS011;55583;53.012;6.556;2022-08-25T10:45:21;13.53;;;2.63;;
52742;SDS011;55583;53.012;6.556;2022-08-25T10:51:02;2.58;;;1.73;;
52742;SDS011;55583;53.012;6.556;2022-08-25T10:53:39;7.22;;;2.40;;
52742;SDS011;55583;53.012;6.556;2022-08-25T10:56:25;2.55;;;1.67;;
52742;SDS011;55583;53.012;6.556;2022-08-25T11:07:00;6.22;;;2.05;;
52742;SDS011;55583;53.012;6.556;2022-08-25T11:09:33;4.75;;;2.03;;
52742;SDS011;55583;53.012;6.556;2022-08-25T11:12:07;2.33;;;2.13;;
52742;SDS011;55583;53.012;6.556;2022-08-25T11:14:41;4.63;;;2.20;;
52742;SDS011;55583;53.012;6.556;2022-08-25T11:17:26;1.85;;;1.60;;
52742;SDS011;55583;53.012;6.556;2022-08-25T11:20:04;4.25;;;1.73;;
52742;SDS011;55583;53.012;6.556;2022-08-25T11:22:41;7.07;;;2.10;;
52742;SDS011;55583;53.012;6.556;2022-08-25T11:28:05;4.82;;;1.88;;
52742;SDS011;55583;53.012;6.556;2022-08-25T11:30:37;5.25;;;2.30;;
52742;SDS011;55583;53.012;6.556;2022-08-25T11:33:03;3.53;;;1.92;;
52742;SDS011;55583;53.012;6.556;2022-08-25T11:35:34;4.63;;;1.58;;
52742;SDS011;55583;53.012;6.556;2022-08-25T11:46:54;6.25;;;2.00;;
52742;SDS011;55583;53.012;6.556;2022-08-25T11:52:57;6.00;;;1.73;;
52742;SDS011;55583;53.012;6.556;2022-08-25T11:55:18;7.28;;;1.90;;
52742;SDS011;55583;53.012;6.556;2022-08-25T11:57:50;4.00;;;2.08;;
52742;SDS011;55583;53.012;6.556;2022-08-25T12:29:59;4.97;;;1.80;;
52742;SDS011;55583;53.012;6.556;2022-08-25T12:35:58;2.45;;;1.98;;
52742;SDS011;55583;53.012;6.556;2022-08-25T12:38:33;2.90;;;1.92;;
52742;SDS011;55583;53.012;6.556;2022-08-25T12:41:11;3.05;;;1.80;;
52742;SDS011;55583;53.012;6.556;2022-08-25T12:43:40;8.68;;;2.78;;
52742;SDS011;55583;53.012;6.556;2022-08-25T12:48:53;10.05;;;2.03;;
52742;SDS011;55583;53.012;6.556;2022-08-25T12:51:22;3.75;;;2.03;;
52742;SDS011;55583;53.012;6.556;2022-08-25T12:53:51;1.90;;;1.80;;
52742;SDS011;55583;53.012;6.556;2022-08-25T12:56:39;4.43;;;1.70;;
52742;SDS011;55583;53.012;6.556;2022-08-25T12:59:19;3.10;;;1.75;;
52742;SDS011;55583;53.012;6.556;2022-08-25T13:10:21;2.63;;;1.67;;
52742;SDS011;55583;53.012;6.556;2022-08-25T13:15:41;2.88;;;1.70;;
52742;SDS011;55583;53.012;6.556;2022-08-25T13:20:47;4.50;;;1.85;;
52742;SDS011;55583;53.012;6.556;2022-08-25T13:23:18;2.85;;;1.50;;
52742;SDS011;55583;53.012;6.556;2022-08-25T13:25:48;2.22;;;1.60;;
52742;SDS011;55583;53.012;6.556;2022-08-25T13:28:30;4.88;;;1.90;;
52742;SDS011;55583;53.012;6.556;2022-08-25T13:31:00;2.55;;;2.03;;
52742;SDS011;55583;53.012;6.556;2022-08-25T13:33:28;3.28;;;1.65;;
52742;SDS011;55583;53.012;6.556;2022-08-25T13:35:55;5.47;;;1.60;;
52742;SDS011;55583;53.012;6.556;2022-08-25T13:38:42;4.03;;;2.10;;
52742;SDS011;55583;53.012;6.556;2022-08-25T13:41:09;3.28;;;1.77;;
52742;SDS011;55583;53.012;6.556;2022-08-25T13:43:40;4.68;;;1.58;;
52742;SDS011;55583;53.012;6.556;2022-08-25T13:46:06;3.00;;;1.75;;
52742;SDS011;55583;53.012;6.556;2022-08-25T13:48:36;5.07;;;1.70;;
52742;SDS011;55583;53.012;6.556;2022-08-25T13:51:16;2.75;;;1.70;;
52742;SDS011;55583;53.012;6.556;2022-08-25T13:53:55;1.73;;;1.42;;
52742;SDS011;55583;53.012;6.556;2022-08-25T13:59:18;2.60;;;1.70;;
52742;SDS011;55583;53.012;6.556;2022-08-25T14:01:53;4.20;;;2.00;;
52742;SDS011;55583;53.012;6.556;2022-08-25T14:04:21;3.33;;;1.70;;
52742;SDS011;55583;53.012;6.556;2022-08-25T14:06:47;3.40;;;1.80;;
52742;SDS011;55583;53.012;6.556;2022-08-25T14:09:14;2.47;;;1.83;;
52742;SDS011;55583;53.012;6.556;2022-08-25T14:11:46;4.20;;;1.77;;
52742;SDS011;55583;53.012;6.556;2022-08-25T14:16:49;5.30;;;2.13;;
52742;SDS011;55583;53.012;6.556;2022-08-25T14:19:18;3.45;;;2.38;;
52742;SDS011;55583;53.012;6.556;2022-08-25T14:21:46;4.10;;;1.65;;
52742;SDS011;55583;53.012;6.556;2022-08-25T14:24:16;8.98;;;2.13;;
52742;SDS011;55583;53.012;6.556;2022-08-25T14:26:42;2.60;;;1.90;;
52742;SDS011;55583;53.012;6.556;2022-08-25T14:29:09;3.50;;;2.17;;
52742;SDS011;55583;53.012;6.556;2022-08-25T14:31:36;5.97;;;2.00;;
52742;SDS011;55583;53.012;6.556;2022-08-25T14:34:09;2.50;;;2.28;;
52742;SDS011;55583;53.012;6.556;2022-08-25T14:36:38;4.10;;;2.38;;
52742;SDS011;55583;53.012;6.556;2022-08-25T14:39:04;1.90;;;1.80;;
52742;SDS011;55583;53.012;6.556;2022-08-25T14:41:31;3.80;;;2.25;;
52742;SDS011;55583;53.012;6.556;2022-08-25T14:43:59;5.82;;;2.35;;
52742;SDS011;55583;53.012;6.556;2022-08-25T14:46:26;5.88;;;2.13;;
52742;SDS011;55583;53.012;6.556;2022-08-25T14:48:55;4.10;;;2.63;;
52742;SDS011;55583;53.012;6.556;2022-08-25T14:51:23;3.80;;;2.80;;
52742;SDS011;55583;53.012;6.556;2022-08-25T14:53:53;4.10;;;2.47;;
52742;SDS011;55583;53.012;6.556;2022-08-25T14:56:22;4.82;;;2.10;;
52742;SDS011;55583;53.012;6.556;2022-08-25T14:58:48;3.85;;;2.10;;
52742;SDS011;55583;53.012;6.556;2022-08-25T15:01:14;4.18;;;2.08;;
52742;SDS011;55583;53.012;6.556;2022-08-25T15:03:42;11.70;;;2.83;;
52742;SDS011;55583;53.012;6.556;2022-08-25T15:06:11;4.00;;;2.40;;
52742;SDS011;55583;53.012;6.556;2022-08-25T15:08:38;7.75;;;2.25;;
52742;SDS011;55583;53.012;6.556;2022-08-25T15:11:23;5.78;;;2.35;;
52742;SDS011;55583;53.012;6.556;2022-08-25T15:13:49;3.47;;;2.40;;
52742;SDS011;55583;53.012;6.556;2022-08-25T15:16:35;4.18;;;2.13;;
52742;SDS011;55583;53.012;6.556;2022-08-25T15:19:07;2.80;;;2.28;;
52742;SDS011;55583;53.012;6.556;2022-08-25T15:21:36;6.22;;;2.33;;
52742;SDS011;55583;53.012;6.556;2022-08-25T15:24:04;3.85;;;2.53;;
52742;SDS011;55583;53.012;6.556;2022-08-25T15:26:31;5.78;;;2.97;;
52742;SDS011;55583;53.012;6.556;2022-08-25T15:29:03;5.72;;;2.88;;
52742;SDS011;55583;53.012;6.556;2022-08-25T15:31:28;4.47;;;2.47;;
52742;SDS011;55583;53.012;6.556;2022-08-25T15:33:54;8.07;;;2.72;;
52742;SDS011;55583;53.012;6.556;2022-08-25T15:36:21;4.88;;;2.20;;
52742;SDS011;55583;53.012;6.556;2022-08-25T15:38:48;3.22;;;2.50;;
52742;SDS011;55583;53.012;6.556;2022-08-25T15:41:14;5.80;;;2.33;;
52742;SDS011;55583;53.012;6.556;2022-08-25T15:43:40;5.65;;;2.47;;
52742;SDS011;55583;53.012;6.556;2022-08-25T15:46:07;4.50;;;2.45;;
52742;SDS011;55583;53.012;6.556;2022-08-25T15:48:33;3.35;;;2.50;;
52742;SDS011;55583;53.012;6.556;2022-08-25T15:50:59;4.30;;;2.50;;
52742;SDS011;55583;53.012;6.556;2022-08-25T15:53:26;3.97;;;2.65;;
52742;SDS011;55583;53.012;6.556;2022-08-25T15:55:53;6.20;;;2.42;;
52742;SDS011;55583;53.012;6.556;2022-08-25T15:58:21;3.70;;;2.40;;
52742;SDS011;55583;53.012;6.556;2022-08-25T16:00:47;4.50;;;2.42;;
52742;SDS011;55583;53.012;6.556;2022-08-25T16:03:13;7.60;;;2.83;;
52742;SDS011;55583;53.012;6.556;2022-08-25T16:05:39;5.55;;;2.65;;
52742;SDS011;55583;53.012;6.556;2022-08-25T16:08:07;8.13;;;2.65;;
52742;SDS011;55583;53.012;6.556;2022-08-25T16:10:33;5.28;;;2.40;;
52742;SDS011;55583;53.012;6.556;2022-08-25T16:13:00;3.72;;;2.80;;
52742;SDS011;55583;53.012;6.556;2022-08-25T16:15:26;3.85;;;2.05;;
52742;SDS011;55583;53.012;6.556;2022-08-25T16:17:53;3.33;;;2.20;;
52742;SDS011;55583;53.012;6.556;2022-08-25T16:20:19;2.95;;;2.30;;
52742;SDS011;55583;53.012;6.556;2022-08-25T16:22:45;3.55;;;2.00;;
52742;SDS011;55583;53.012;6.556;2022-08-25T16:25:11;4.80;;;2.70;;
52742;SDS011;55583;53.012;6.556;2022-08-25T16:27:37;7.72;;;2.40;;
52742;SDS011;55583;53.012;6.556;2022-08-25T16:30:03;4.95;;;2.25;;
52742;SDS011;55583;53.012;6.556;2022-08-25T16:32:30;5.60;;;2.15;;
52742;SDS011;55583;53.012;6.556;2022-08-25T16:34:56;4.40;;;2.47;;
52742;SDS011;55583;53.012;6.556;2022-08-25T16:37:22;5.60;;;2.20;;
52742;SDS011;55583;53.012;6.556;2022-08-25T16:39:51;2.35;;;1.95;;
52742;SDS011;55583;53.012;6.556;2022-08-25T16:42:17;4.65;;;2.30;;
52742;SDS011;55583;53.012;6.556;2022-08-25T16:44:43;5.65;;;2.60;;
52742;SDS011;55583;53.012;6.556;2022-08-25T16:47:09;3.63;;;2.45;;
52742;SDS011;55583;53.012;6.556;2022-08-25T16:49:35;6.20;;;2.47;;
52742;SDS011;55583;53.012;6.556;2022-08-25T16:52:01;3.28;;;2.42;;
52742;SDS011;55583;53.012;6.556;2022-08-25T16:54:46;5.45;;;2.75;;
52742;SDS011;55583;53.012;6.556;2022-08-25T16:57:31;5.40;;;2.67;;